sim
Sign-in with your pilot id or email,
or register
Callsign
Passwort

Schedule Details

Flight Number: OEO9036
Departure: Munich Airport (EDDM) at 05:30
Arrival: Bratislava M. R. Stefanik Airport (LZIB) at 06:40

Weather Information
Getting current METAR information for EDDM 232020Z 07003KT 040V100 0200 R08L/0375N R08R/0450V0550N FG BKN001 08/08 Q1013 NOSIG
Getting current METAR information for LZIB 232030Z 05003KT 360V080 CAVOK 13/10 Q1017

Schedule Frequency

Route Map